Time;durP1;ratioP1;P1;durP2;ratioP2;P2;SDS_P1;SDS_P2;PMS_P1;PMS_P2;Temp;Humidity;BMP_temperature;BMP_pressure;BME280_temperature;BME280_humidity;BME280_pressure;Samples;Min_cycle;Max_cycle;Signal;HPM_P1;HPM_P2
2021/10/03 00:00:07;;;;;;;11.45;8.32;;;;;;;15.62;52.98;100122.69;4918962;28;98525;-59
2021/10/03 00:02:33;;;;;;;9.30;8.25;;;;;;;15.58;53.29;100116.25;4919304;28;97768;-62
2021/10/03 00:05:00;;;;;;;10.98;8.02;;;;;;;15.57;53.24;100111.94;4916485;28;128035;-63
2021/10/03 00:07:26;;;;;;;9.27;7.95;;;;;;;15.49;53.39;100108.06;4900449;28;115271;-61
2021/10/03 00:09:52;;;;;;;9.38;8.35;;;;;;;15.47;53.06;100108.34;4917220;28;125611;-59
2021/10/03 00:12:20;;;;;;;9.35;8.10;;;;;;;15.45;53.20;100109.78;4919160;28;111182;-59
2021/10/03 00:14:46;;;;;;;10.55;8.15;;;;;;;15.43;53.42;100090.25;4919902;28;101221;-62
2021/10/03 00:17:13;;;;;;;10.25;8.10;;;;;;;15.37;53.18;100103.16;4919376;28;111943;-61
2021/10/03 00:19:39;;;;;;;10.68;8.23;;;;;;;15.35;53.44;100086.38;4920470;28;97919;-62
2021/10/03 00:22:05;;;;;;;8.50;7.47;;;;;;;15.32;53.31;100095.13;4918112;28;123493;-59
2021/10/03 00:24:31;;;;;;;10.63;8.00;;;;;;;15.30;53.68;100094.66;4917729;28;98609;-59
2021/10/03 00:26:58;;;;;;;10.48;7.82;;;;;;;15.30;53.36;100088.41;4918573;28;127903;-62
2021/10/03 00:29:25;;;;;;;10.90;8.27;;;;;;;15.26;53.26;100092.84;4919678;28;98213;-62
2021/10/03 00:31:52;;;;;;;11.73;8.23;;;;;;;15.20;53.35;100089.44;4919260;28;97983;-59
2021/10/03 00:34:18;;;;;;;10.48;8.20;;;;;;;15.23;53.32;100083.41;4917804;28;98972;-59
2021/10/03 00:36:44;;;;;;;12.00;8.32;;;;;;;15.22;53.84;100084.53;4917666;28;120270;-62
2021/10/03 00:39:10;;;;;;;11.35;8.38;;;;;;;15.20;53.71;100082.09;4919387;28;118705;-60
2021/10/03 00:41:36;;;;;;;12.35;8.38;;;;;;;15.18;53.62;100075.38;4919593;28;97670;-61
2021/10/03 00:44:02;;;;;;;11.30;8.95;;;;;;;15.18;53.35;100073.47;4918027;28;126631;-60
2021/10/03 00:46:29;;;;;;;10.30;8.20;;;;;;;15.17;53.67;100081.94;4916799;28;115984;-60
2021/10/03 00:48:55;;;;;;;12.82;7.97;;;;;;;15.15;53.74;100070.56;4919082;28;123538;-61
2021/10/03 00:51:21;;;;;;;11.25;8.57;;;;;;;15.13;53.86;100070.06;4919499;28;98028;-62
2021/10/03 00:53:47;;;;;;;9.88;8.65;;;;;;;15.11;53.68;100069.56;4918858;28;115759;-62
2021/10/03 00:56:15;;;;;;;9.65;8.20;;;;;;;15.12;53.54;100063.81;4916393;28;126748;-60
2021/10/03 00:58:41;;;;;;;9.70;8.43;;;;;;;15.12;53.78;100061.09;4917878;28;98107;-62
2021/10/03 01:01:08;;;;;;;11.02;8.23;;;;;;;15.09;53.40;100067.19;4900567;28;111217;-60
2021/10/03 01:03:35;;;;;;;10.30;8.20;;;;;;;15.06;53.95;100059.63;4918219;28;113605;-59
2021/10/03 01:06:02;;;;;;;10.40;8.48;;;;;;;15.08;53.68;100059.31;4919015;28;98657;-60
2021/10/03 01:08:28;;;;;;;11.18;8.73;;;;;;;15.08;53.91;100056.59;4918783;28;119705;-60
2021/10/03 01:10:55;;;;;;;9.68;8.60;;;;;;;15.06;53.94;100050.69;4918901;28;120320;-59
2021/10/03 01:13:23;;;;;;;11.80;8.65;;;;;;;15.02;53.53;100045.09;4917371;28;128860;-62
2021/10/03 01:15:52;;;;;;;9.90;8.73;;;;;;;15.03;53.94;100048.59;4917757;28;97814;-60
2021/10/03 01:18:18;;;;;;;11.52;9.05;;;;;;;15.03;53.91;100038.53;4920246;28;98273;-63
2021/10/03 01:20:44;;;;;;;10.70;8.73;;;;;;;15.03;53.98;100022.25;4922101;28;110151;-62
2021/10/03 01:23:10;;;;;;;9.95;8.85;;;;;;;15.03;53.79;100026.88;4920939;28;119836;-59
2021/10/03 01:25:41;;;;;;;10.63;8.70;;;;;;;15.02;53.88;100026.09;4918151;28;126925;-59
2021/10/03 01:28:07;;;;;;;9.88;8.88;;;;;;;15.02;53.68;100028.00;4922020;28;108667;-60
2021/10/03 01:30:35;;;;;;;14.50;9.07;;;;;;;15.00;53.96;100019.34;4923299;28;97713;-62
2021/10/03 01:33:01;;;;;;;12.75;8.93;;;;;;;15.00;53.58;100017.44;4921790;28;98066;-61
2021/10/03 01:35:27;;;;;;;10.45;9.02;;;;;;;14.99;53.69;100015.84;4922190;28;119721;-59
2021/10/03 01:37:53;;;;;;;10.30;9.00;;;;;;;15.00;53.70;100014.72;4920799;28;127392;-59
2021/10/03 01:40:20;;;;;;;11.50;9.15;;;;;;;14.94;53.75;100000.47;4919702;28;99484;-62
2021/10/03 01:42:46;;;;;;;11.35;9.55;;;;;;;14.98;54.10;100006.91;4901903;28;99174;-62
2021/10/03 01:45:15;;;;;;;12.27;8.98;;;;;;;14.97;53.53;100015.31;4920388;28;108701;-60
2021/10/03 01:48:04;;;;;;;12.70;9.88;;;;;;;14.94;53.59;100008.63;4921060;28;98597;-62
2021/10/03 01:50:31;;;;;;;11.35;8.98;;;;;;;14.95;53.44;100010.22;4922470;28;97636;-59
2021/10/03 01:52:57;;;;;;;10.68;9.30;;;;;;;14.98;53.59;100011.53;4919832;28;98071;-61
2021/10/03 01:55:23;;;;;;;11.70;9.38;;;;;;;14.98;53.45;100006.09;4920682;28;126972;-59
2021/10/03 01:57:49;;;;;;;11.32;9.50;;;;;;;14.95;53.87;100007.50;4920440;28;127685;-59
2021/10/03 02:00:15;;;;;;;12.10;9.60;;;;;;;14.95;53.66;100004.00;4921465;28;112166;-59
2021/10/03 02:02:41;;;;;;;12.10;9.82;;;;;;;14.93;53.45;99996.16;4918457;28;99053;-59
2021/10/03 02:05:08;;;;;;;11.13;9.68;;;;;;;14.91;54.02;99995.66;4921119;28;97935;-61
2021/10/03 02:07:34;;;;;;;11.50;9.88;;;;;;;14.90;53.77;99999.50;4920734;28;112983;-61
2021/10/03 02:10:00;;;;;;;11.88;9.68;;;;;;;14.91;53.92;100000.28;4921865;28;98092;-61
2021/10/03 02:12:26;;;;;;;11.43;10.23;;;;;;;14.91;54.14;100006.50;4919670;28;129126;-62
2021/10/03 02:14:52;;;;;;;12.68;9.57;;;;;;;14.89;54.09;100003.28;4920129;28;128536;-59
2021/10/03 02:17:18;;;;;;;12.15;9.93;;;;;;;14.88;53.83;100001.69;4919925;28;128215;-59
2021/10/03 02:19:45;;;;;;;12.60;9.88;;;;;;;14.89;54.09;99997.88;4920903;28;123120;-61
2021/10/03 02:22:11;;;;;;;11.32;9.73;;;;;;;14.89;53.74;100002.50;4919544;28;99393;-61
2021/10/03 02:24:37;;;;;;;12.63;9.52;;;;;;;14.87;54.13;100005.53;4886165;28;128192;-59
2021/10/03 02:27:04;;;;;;;14.90;9.57;;;;;;;14.87;53.89;99994.66;4919895;28;128303;-61
2021/10/03 02:29:30;;;;;;;13.40;9.90;;;;;;;14.87;53.80;100000.09;4920902;28;108630;-61
2021/10/03 02:31:56;;;;;;;12.15;9.38;;;;;;;14.88;53.98;99993.56;4919257;28;126794;-59
2021/10/03 02:34:22;;;;;;;12.52;10.07;;;;;;;14.87;53.97;100002.81;4918627;28;128116;-61
2021/10/03 02:36:48;;;;;;;12.75;9.90;;;;;;;14.88;54.23;100004.41;4903020;28;98508;-61
2021/10/03 02:39:14;;;;;;;11.75;9.80;;;;;;;14.88;53.81;99993.56;4920529;28;122791;-59
2021/10/03 02:41:41;;;;;;;12.82;10.00;;;;;;;14.86;54.19;99995.78;4919564;28;127121;-59
2021/10/03 02:44:08;;;;;;;12.27;10.00;;;;;;;14.83;53.93;99999.09;4920279;28;128721;-61
2021/10/03 02:46:34;;;;;;;12.00;9.23;;;;;;;14.85;53.98;100001.50;4919848;28;98853;-59
2021/10/03 02:49:01;;;;;;;11.10;9.60;;;;;;;14.85;54.31;99999.59;4920619;28;123352;-59
2021/10/03 02:51:29;;;;;;;13.07;9.95;;;;;;;14.83;54.21;100004.53;4919734;28;119287;-59
2021/10/03 02:53:56;;;;;;;11.45;10.02;;;;;;;14.81;54.49;100012.16;4920674;28;113474;-59
2021/10/03 02:56:24;;;;;;;12.15;9.60;;;;;;;14.80;54.34;100002.44;4920558;28;109670;-58
2021/10/03 02:58:50;;;;;;;12.23;10.00;;;;;;;14.79;54.36;100006.25;4920605;28;97877;-61
2021/10/03 03:01:17;;;;;;;12.13;10.32;;;;;;;14.77;54.50;100004.94;4919608;28;117255;-58
2021/10/03 03:03:43;;;;;;;13.82;10.15;;;;;;;14.80;54.41;100001.63;4920528;28;99723;-62
2021/10/03 03:06:09;;;;;;;12.80;9.82;;;;;;;14.79;54.46;100000.81;4920943;28;98544;-59
2021/10/03 03:08:35;;;;;;;13.30;10.30;;;;;;;14.79;54.50;99991.88;4902392;28;113341;-61
2021/10/03 03:11:01;;;;;;;14.75;10.38;;;;;;;14.77;54.29;100004.94;4920193;28;124588;-62
2021/10/03 03:13:27;;;;;;;11.60;10.40;;;;;;;14.78;54.72;100001.16;4919886;28;116854;-59
2021/10/03 03:15:54;;;;;;;11.60;10.32;;;;;;;14.79;54.77;100005.47;4920568;28;98043;-61
2021/10/03 03:18:20;;;;;;;12.80;10.40;;;;;;;14.78;54.02;100001.16;4920250;28;98418;-61
2021/10/03 03:20:46;;;;;;;11.15;9.95;;;;;;;14.75;54.52;99999.84;4921155;28;101015;-62
2021/10/03 03:23:12;;;;;;;13.98;10.43;;;;;;;14.71;54.70;99999.66;4917628;28;128064;-61
2021/10/03 03:25:38;;;;;;;12.60;10.38;;;;;;;14.73;54.71;100002.03;4918032;28;98053;-59
2021/10/03 03:28:05;;;;;;;11.90;9.40;;;;;;;14.70;54.80;100008.09;4918420;28;98037;-61
2021/10/03 03:30:31;;;;;;;11.30;10.05;;;;;;;14.68;54.68;100005.66;4902645;28;98338;-59
2021/10/03 03:32:57;;;;;;;12.38;10.10;;;;;;;14.68;55.08;100018.44;4917112;28;128560;-62
2021/10/03 03:35:24;;;;;;;12.43;10.30;;;;;;;14.68;55.10;100005.66;4919812;28;127856;-61
2021/10/03 03:37:51;;;;;;;13.02;10.50;;;;;;;14.66;55.18;100007.09;4919831;28;97762;-59
2021/10/03 03:40:19;;;;;;;11.85;10.43;;;;;;;14.67;54.73;100006.00;4919389;28;98517;-59
2021/10/03 03:42:46;;;;;;;13.55;10.30;;;;;;;14.69;54.70;100006.47;4919777;28;99111;-61
2021/10/03 03:45:12;;;;;;;13.13;10.40;;;;;;;14.66;55.19;100012.53;4902130;28;98204;-59
2021/10/03 03:47:38;;;;;;;11.82;9.80;;;;;;;14.65;54.98;100009.00;4919830;28;112451;-59
2021/10/03 03:50:05;;;;;;;13.48;10.52;;;;;;;14.65;55.29;100011.69;4919420;28;119315;-62
2021/10/03 03:52:31;;;;;;;12.23;10.20;;;;;;;14.63;54.99;100007.72;4919349;28;115221;-61
2021/10/03 03:54:58;;;;;;;12.52;10.02;;;;;;;14.60;55.09;100019.97;4917982;28;98534;-61
2021/10/03 03:57:24;;;;;;;14.13;10.10;;;;;;;14.61;55.33;100004.50;4919157;28;120619;-59
2021/10/03 03:59:50;;;;;;;12.38;9.75;;;;;;;14.62;55.52;100022.34;4919482;28;128733;-59
2021/10/03 04:02:16;;;;;;;11.30;9.77;;;;;;;14.60;55.76;100022.66;4919850;28;111812;-61
2021/10/03 04:04:43;;;;;;;12.30;10.23;;;;;;;14.59;55.70;100017.56;4917650;28;99812;-59
2021/10/03 04:07:09;;;;;;;12.65;9.90;;;;;;;14.60;55.31;100013.75;4917602;28;97968;-59
2021/10/03 04:09:35;;;;;;;13.10;10.07;;;;;;;14.59;55.18;100015.66;4919650;28;116458;-59
2021/10/03 04:12:01;;;;;;;10.45;9.43;;;;;;;14.61;55.49;100012.63;4917716;28;127271;-61
2021/10/03 04:14:27;;;;;;;11.82;9.95;;;;;;;14.59;55.55;100010.22;4920595;28;107280;-62
2021/10/03 04:16:54;;;;;;;12.07;9.73;;;;;;;14.59;55.30;100010.22;4918660;28;122988;-61
2021/10/03 04:19:20;;;;;;;12.25;10.30;;;;;;;14.59;55.28;100010.22;4918425;28;129420;-61
2021/10/03 04:21:46;;;;;;;12.35;10.23;;;;;;;14.60;55.63;100003.69;4884690;28;127881;-61
2021/10/03 04:24:12;;;;;;;12.27;10.05;;;;;;;14.59;55.68;100010.22;4917645;28;128105;-61
2021/10/03 04:26:38;;;;;;;12.63;10.52;;;;;;;14.58;55.62;100005.09;4918830;28;122809;-59
2021/10/03 04:29:04;;;;;;;11.95;9.95;;;;;;;14.58;55.54;100010.50;4919376;28;126813;-59
2021/10/03 04:31:30;;;;;;;10.68;9.57;;;;;;;14.57;55.51;100003.50;4916299;28;127514;-61
2021/10/03 04:33:57;;;;;;;11.70;10.25;;;;;;;14.55;55.27;99998.38;4918786;28;126502;-62
2021/10/03 04:36:26;;;;;;;14.35;10.20;;;;;;;14.52;55.55;100009.03;4918998;28;97779;-61
2021/10/03 04:38:52;;;;;;;11.20;9.90;;;;;;;14.49;55.55;100010.44;4919503;28;116884;-61
2021/10/03 04:41:18;;;;;;;13.05;10.15;;;;;;;14.48;55.66;100012.31;4919888;28;98927;-59
2021/10/03 04:43:44;;;;;;;11.07;9.93;;;;;;;14.44;55.81;99997.75;4918205;28;127759;-61
2021/10/03 04:46:11;;;;;;;16.95;9.98;;;;;;;14.45;55.91;100010.22;4918043;28;123074;-62
2021/10/03 04:48:38;;;;;;;12.43;10.27;;;;;;;14.45;55.69;100001.28;4918157;28;127783;-61
2021/10/03 04:51:04;;;;;;;13.00;10.23;;;;;;;14.43;55.66;100004.31;4920987;28;117558;-59
2021/10/03 04:53:30;;;;;;;12.18;9.70;;;;;;;14.44;55.51;100005.91;4922369;28;98099;-61
2021/10/03 04:55:56;;;;;;;11.00;9.60;;;;;;;14.41;56.02;100009.22;4919697;28;124637;-61
2021/10/03 04:58:22;;;;;;;13.15;10.45;;;;;;;14.42;55.68;100008.13;4921048;28;98065;-61
2021/10/03 05:00:51;;;;;;;12.07;9.82;;;;;;;14.39;55.68;100008.72;4921706;28;128016;-61
2021/10/03 05:03:18;;;;;;;11.98;9.82;;;;;;;14.37;55.91;100002.78;4923165;28;97883;-61
2021/10/03 05:05:44;;;;;;;13.05;10.30;;;;;;;14.34;56.02;99999.88;4921946;28;97883;-59
2021/10/03 05:08:12;;;;;;;12.15;9.38;;;;;;;14.33;56.18;99999.09;4904114;28;98126;-62
2021/10/03 05:10:39;;;;;;;12.20;10.50;;;;;;;14.31;56.26;100003.22;4920312;28;99175;-61
2021/10/03 05:13:05;;;;;;;12.23;10.23;;;;;;;14.30;56.04;100001.59;4920376;28;98129;-61
2021/10/03 05:15:31;;;;;;;12.98;10.68;;;;;;;14.29;56.32;100000.00;4919513;28;122732;-62
2021/10/03 05:17:58;;;;;;;11.32;9.77;;;;;;;14.25;56.12;99994.38;4918655;28;127210;-61
2021/10/03 05:20:24;;;;;;;11.18;9.98;;;;;;;14.25;56.25;99992.47;4871851;28;104697;-60
2021/10/03 05:22:50;;;;;;;12.45;9.77;;;;;;;14.27;55.99;100003.03;4923361;28;97739;-61
2021/10/03 05:25:16;;;;;;;12.23;10.18;;;;;;;14.27;56.04;99986.75;4902793;28;119245;-61
2021/10/03 05:27:43;;;;;;;11.70;9.90;;;;;;;14.29;56.04;99989.16;4921614;28;126901;-61
2021/10/03 05:30:10;;;;;;;12.23;10.10;;;;;;;14.30;56.15;99983.41;4922638;28;98294;-61
2021/10/03 05:32:36;;;;;;;11.55;10.23;;;;;;;14.37;56.03;99999.28;4904594;28;98140;-61
2021/10/03 05:35:03;;;;;;;12.63;10.15;;;;;;;14.44;55.79;99991.53;4922584;28;109404;-61
2021/10/03 05:37:29;;;;;;;14.50;10.23;;;;;;;14.53;55.90;100003.28;4902655;28;98443;-59
2021/10/03 05:39:55;;;;;;;14.23;10.02;;;;;;;14.61;55.68;100002.56;4901239;28;128728;-61
2021/10/03 05:42:21;;;;;;;11.98;9.73;;;;;;;14.71;55.81;99998.84;4920647;28;99178;-58
2021/10/03 05:44:47;;;;;;;12.93;10.48;;;;;;;14.79;55.17;99998.13;4919292;28;123124;-61
2021/10/03 05:47:14;;;;;;;12.07;9.90;;;;;;;14.81;55.54;99995.88;4919568;28;110166;-61
2021/10/03 05:49:40;;;;;;;12.98;10.00;;;;;;;14.88;55.40;99992.75;4921900;28;98438;-59
2021/10/03 05:52:06;;;;;;;13.57;9.60;;;;;;;14.92;55.08;99991.81;4920324;28;128241;-59
2021/10/03 05:54:32;;;;;;;10.60;9.30;;;;;;;14.97;55.16;99988.19;4922083;28;97916;-59
2021/10/03 05:56:58;;;;;;;13.55;10.25;;;;;;;15.00;54.74;99992.22;4920648;28;98556;-61
2021/10/03 05:59:24;;;;;;;12.23;9.50;;;;;;;15.04;54.84;99990.47;4918109;28;127878;-62
2021/10/03 06:01:50;;;;;;;12.55;9.90;;;;;;;15.09;54.67;100001.19;4918539;28;98010;-59
2021/10/03 06:04:17;;;;;;;11.35;9.88;;;;;;;15.10;54.56;99989.25;4918231;28;123805;-61
2021/10/03 06:06:43;;;;;;;10.60;9.50;;;;;;;15.15;54.89;99991.84;4917488;28;98439;-59
2021/10/03 06:09:09;;;;;;;11.93;9.63;;;;;;;15.22;54.41;99986.78;4916064;28;121272;-61
2021/10/03 06:11:35;;;;;;;11.85;9.80;;;;;;;15.29;54.63;99980.91;4899592;28;125327;-59
2021/10/03 06:14:01;;;;;;;12.63;9.77;;;;;;;15.38;54.46;99989.91;4919260;28;97808;-61
2021/10/03 06:16:27;;;;;;;11.90;9.43;;;;;;;15.47;54.60;99988.03;4917727;28;98376;-61
2021/10/03 06:18:54;;;;;;;12.93;9.77;;;;;;;15.54;54.03;99993.03;4900421;28;98637;-61
2021/10/03 06:21:20;;;;;;;12.68;10.40;;;;;;;15.59;53.17;99988.25;4915010;28;127419;-59
2021/10/03 06:23:46;;;;;;;13.30;9.63;;;;;;;15.62;53.97;99984.13;4884711;28;97964;-59
2021/10/03 06:26:13;;;;;;;11.95;8.98;;;;;;;15.64;53.81;99980.00;4918175;28;98208;-59
2021/10/03 06:28:39;;;;;;;13.05;9.60;;;;;;;15.67;53.80;99992.97;4918230;28;97812;-59
2021/10/03 06:31:06;;;;;;;11.90;9.93;;;;;;;15.69;53.30;99985.31;4916853;28;116267;-59
2021/10/03 06:33:32;;;;;;;11.38;9.50;;;;;;;15.79;53.29;99984.22;4901084;28;98214;-61
2021/10/03 06:35:58;;;;;;;12.32;9.43;;;;;;;15.84;53.32;99989.53;4916674;28;118787;-61
2021/10/03 06:38:25;;;;;;;11.77;9.20;;;;;;;15.90;53.14;99984.75;4917426;28;98158;-59
2021/10/03 06:40:51;;;;;;;11.18;8.60;;;;;;;15.98;53.27;99989.41;4916994;28;125380;-61
2021/10/03 06:43:17;;;;;;;11.05;9.85;;;;;;;16.07;53.05;100006.59;4917413;28;122818;-59
2021/10/03 06:45:43;;;;;;;10.52;9.35;;;;;;;16.15;52.80;99984.06;4916545;28;128404;-59
2021/10/03 06:48:10;;;;;;;11.75;9.50;;;;;;;16.23;52.93;99996.06;4917234;28;128857;-59
2021/10/03 06:50:36;;;;;;;13.00;9.40;;;;;;;16.29;52.64;99980.41;4916659;28;98765;-61
2021/10/03 06:53:02;;;;;;;11.50;9.27;;;;;;;16.32;52.53;99983.28;4918114;28;114341;-60
2021/10/03 06:55:28;;;;;;;11.75;9.98;;;;;;;16.38;52.09;99987.44;4916242;28;110083;-60
2021/10/03 06:57:54;;;;;;;11.00;9.13;;;;;;;16.42;52.34;99990.31;4917292;28;102784;-60
2021/10/03 07:00:20;;;;;;;10.85;9.43;;;;;;;16.47;52.12;99984.75;4915521;28;97992;-59
2021/10/03 07:02:46;;;;;;;9.68;8.75;;;;;;;16.53;52.10;99988.13;4916318;28;121715;-59
2021/10/03 07:05:13;;;;;;;10.50;9.50;;;;;;;16.57;51.94;99989.88;4917665;28;98435;-61
2021/10/03 07:07:39;;;;;;;10.70;9.30;;;;;;;16.63;51.85;99985.09;4915525;28;98606;-61
2021/10/03 07:10:06;;;;;;;11.25;8.85;;;;;;;16.71;51.80;99995.19;4917026;28;128301;-61
2021/10/03 07:12:32;;;;;;;10.93;9.70;;;;;;;16.76;51.81;99983.34;4916168;28;108976;-59
2021/10/03 07:14:58;;;;;;;11.55;9.45;;;;;;;16.83;51.30;99989.13;4915933;28;127106;-61
2021/10/03 07:17:24;;;;;;;10.30;9.25;;;;;;;16.89;51.67;99991.34;4915459;28;128520;-60
2021/10/03 07:19:50;;;;;;;10.05;8.57;;;;;;;16.99;51.66;99976.63;4916858;28;126157;-62
2021/10/03 07:22:16;;;;;;;10.95;9.55;;;;;;;17.10;51.37;99975.19;4917503;28;98123;-61
2021/10/03 07:24:42;;;;;;;11.30;9.50;;;;;;;17.16;51.27;99975.81;4916470;28;128280;-62
2021/10/03 07:27:08;;;;;;;10.90;9.07;;;;;;;17.29;51.47;99990.34;4916817;28;98805;-61
2021/10/03 07:29:35;;;;;;;12.55;9.35;;;;;;;17.36;50.76;99980.56;4917010;28;126993;-61
2021/10/03 07:32:02;;;;;;;11.98;9.30;;;;;;;17.44;50.96;99981.66;4917361;28;98090;-61
2021/10/03 07:34:29;;;;;;;10.77;8.95;;;;;;;17.53;50.44;99977.00;4916849;28;99170;-60
2021/10/03 07:36:56;;;;;;;10.15;9.15;;;;;;;17.56;50.24;99981.00;4917176;28;98963;-61
2021/10/03 07:39:22;;;;;;;12.75;9.18;;;;;;;17.71;50.13;99985.91;4916978;28;97900;-60
2021/10/03 07:41:48;;;;;;;9.23;8.30;;;;;;;17.78;49.82;99978.06;4916450;28;112701;-62
2021/10/03 07:44:14;;;;;;;10.70;9.18;;;;;;;17.86;49.58;99970.97;4917181;28;98830;-61
2021/10/03 07:46:40;;;;;;;12.57;9.10;;;;;;;17.96;49.41;99976.06;4915853;28;128210;-61
2021/10/03 07:49:06;;;;;;;10.82;9.50;;;;;;;18.05;49.18;99968.63;4916440;28;124025;-59
2021/10/03 07:51:32;;;;;;;10.02;9.02;;;;;;;18.24;48.86;99965.50;4915639;28;122444;-59
2021/10/03 07:53:59;;;;;;;10.43;9.43;;;;;;;18.44;48.38;99963.13;4917211;28;98558;-59
2021/10/03 07:56:25;;;;;;;10.82;9.13;;;;;;;18.67;48.05;99971.75;4916890;28;98403;-61
2021/10/03 07:58:51;;;;;;;11.18;8.60;;;;;;;18.84;47.49;99960.72;4916915;28;97865;-60
2021/10/03 08:01:18;;;;;;;10.20;9.20;;;;;;;19.05;47.35;99969.69;4916849;28;99994;-60
2021/10/03 08:03:44;;;;;;;13.40;9.02;;;;;;;19.51;46.23;99969.72;4908088;28;98173;-60
2021/10/03 08:06:10;;;;;;;10.18;8.60;;;;;;;20.05;45.36;99977.75;4916951;28;98478;-61
2021/10/03 08:08:36;;;;;;;11.45;8.70;;;;;;;20.41;44.86;99976.13;4914406;28;119879;-62
2021/10/03 08:11:03;;;;;;;10.82;8.82;;;;;;;20.97;43.84;99985.22;4916126;28;105957;-62
2021/10/03 08:13:29;;;;;;;9.85;8.95;;;;;;;22.47;41.14;99983.53;4915187;28;127174;-62
2021/10/03 08:15:55;;;;;;;8.98;8.18;;;;;;;24.93;36.97;99976.00;4916376;28;128091;-63
2021/10/03 08:18:21;;;;;;;9.35;8.18;;;;;;;27.61;32.82;99988.03;4915441;28;107352;-63
2021/10/03 08:20:47;;;;;;;9.65;8.68;;;;;;;28.71;31.81;100008.53;4914423;28;113570;-61
2021/10/03 08:23:13;;;;;;;9.00;7.53;;;;;;;31.97;28.21;100007.75;4916680;28;98780;-59
2021/10/03 08:25:40;;;;;;;8.18;7.38;;;;;;;34.32;25.49;100011.50;4916741;28;122313;-61
2021/10/03 08:28:06;;;;;;;8.60;7.65;;;;;;;35.58;24.65;100020.66;4917445;28;99180;-61
2021/10/03 08:30:32;;;;;;;7.72;7.03;;;;;;;36.34;23.65;100012.06;4918765;28;98394;-60
2021/10/03 08:32:58;;;;;;;9.15;7.25;;;;;;;36.58;23.45;100003.25;4919816;28;100326;-59
2021/10/03 08:35:24;;;;;;;7.90;7.07;;;;;;;37.88;21.51;99994.97;4918928;28;124110;-61
2021/10/03 08:37:50;;;;;;;9.48;6.95;;;;;;;39.34;20.54;99995.28;4918305;28;126682;-60
2021/10/03 08:40:16;;;;;;;7.57;6.82;;;;;;;40.19;19.52;99985.38;4918581;28;122340;-60
2021/10/03 08:42:42;;;;;;;7.55;6.85;;;;;;;40.62;18.83;99993.63;4919566;28;108618;-62
2021/10/03 08:45:08;;;;;;;8.38;6.88;;;;;;;40.35;19.12;99983.34;4901466;28;98592;-62
2021/10/03 08:47:40;;;;;;;8.48;6.50;;;;;;;41.11;19.33;99970.34;4916776;28;121937;-61
2021/10/03 08:50:09;;;;;;;7.47;6.70;;;;;;;41.94;17.75;99963.56;4918865;28;97907;-60
2021/10/03 08:52:36;;;;;;;7.00;6.40;;;;;;;42.52;17.45;99958.00;4919797;28;98936;-60
2021/10/03 08:55:02;;;;;;;6.68;6.03;;;;;;;42.89;17.60;99956.03;4918877;28;98111;-61
2021/10/03 08:57:28;;;;;;;7.20;6.50;;;;;;;43.28;16.96;99960.44;4900214;28;109357;-62
2021/10/03 09:00:22;;;;;;;6.95;6.25;;;;;;;44.68;16.69;99958.13;4919710;28;124135;-60
2021/10/03 09:02:57;;;;;;;6.97;6.35;;;;;;;43.70;16.59;99950.34;4917172;28;116151;-61
2021/10/03 09:05:25;;;;;;;7.18;6.47;;;;;;;42.27;17.05;99946.19;4919904;28;98024;-61
2021/10/03 09:08:04;;;;;;;7.88;6.30;;;;;;;40.32;19.16;99948.41;4918859;28;98237;-61
2021/10/03 09:11:04;;;;;;;6.85;6.10;;;;;;;40.91;18.29;99945.63;4894994;28;97920;-60
2021/10/03 09:13:32;;;;;;;6.78;6.18;;;;;;;42.15;17.26;99938.84;4919610;28;98091;-63
2021/10/03 09:16:09;;;;;;;6.93;6.32;;;;;;;42.11;17.12;99941.09;4919551;28;99179;-63
2021/10/03 09:18:55;;;;;;;7.07;5.70;;;;;;;41.18;17.57;99929.59;4918308;28;97953;-59
2021/10/03 09:21:30;;;;;;;6.80;6.20;;;;;;;41.21;17.20;99925.78;4918162;28;116652;-63
2021/10/03 09:24:16;;;;;;;6.72;6.10;;;;;;;40.16;17.88;99935.56;4918874;28;98629;-60
2021/10/03 09:27:03;;;;;;;6.95;6.15;;;;;;;38.83;18.91;99922.84;4917190;28;98725;-61
2021/10/03 09:29:36;;;;;;;6.75;6.03;;;;;;;38.26;19.19;99924.19;4918807;28;98896;-60
2021/10/03 09:32:17;;;;;;;6.88;6.28;;;;;;;37.75;19.50;99932.47;4919188;28;98191;-60
2021/10/03 09:34:49;;;;;;;6.72;6.05;;;;;;;35.60;21.52;99922.91;4919358;28;99824;-60
2021/10/03 09:37:29;;;;;;;7.68;6.97;;;;;;;33.79;22.96;99919.41;4917071;28;98773;-60
2021/10/03 09:40:05;;;;;;;7.40;6.50;;;;;;;33.55;23.68;99927.19;4917901;28;98174;-62
2021/10/03 09:42:31;;;;;;;6.60;6.03;;;;;;;33.70;23.04;99939.59;4918646;28;98116;-60
2021/10/03 09:45:14;;;;;;;7.30;6.60;;;;;;;33.75;23.74;99929.09;4918660;28;98868;-63
2021/10/03 09:47:42;;;;;;;7.40;6.70;;;;;;;32.41;24.14;99930.50;4918297;28;99314;-63
2021/10/03 09:50:10;;;;;;;6.75;6.13;;;;;;;31.62;25.25;99922.75;4918605;28;98317;-60
2021/10/03 09:52:40;;;;;;;6.80;6.20;;;;;;;31.20;26.20;99919.41;4918380;28;97824;-60
2021/10/03 09:55:09;;;;;;;7.72;6.40;;;;;;;30.73;26.61;99926.81;4917280;28;119737;-61
2021/10/03 09:57:38;;;;;;;6.63;5.88;;;;;;;30.30;26.79;99919.81;4919214;28;98358;-62
2021/10/03 10:00:05;;;;;;;7.43;6.55;;;;;;;30.10;27.63;99910.47;4918040;28;98675;-61
2021/10/03 10:02:31;;;;;;;6.82;6.13;;;;;;;29.98;27.49;99917.34;4917719;28;108872;-60
2021/10/03 10:04:57;;;;;;;6.75;6.15;;;;;;;29.98;27.89;99909.00;4915939;28;127263;-60
2021/10/03 10:07:23;;;;;;;6.57;5.97;;;;;;;29.66;27.97;99900.97;4899950;28;99137;-60
2021/10/03 10:09:49;;;;;;;8.75;6.38;;;;;;;29.55;27.90;99900.25;4915313;28;128363;-63
2021/10/03 10:12:19;;;;;;;8.82;6.10;;;;;;;29.18;28.74;99907.28;4915826;28;120783;-61
2021/10/03 10:14:48;;;;;;;8.45;6.47;;;;;;;28.75;29.26;99903.97;4918611;28;98895;-60
2021/10/03 10:17:29;;;;;;;7.10;5.80;;;;;;;28.10;30.32;99892.31;4915830;28;98445;-60
2021/10/03 10:19:56;;;;;;;6.70;5.97;;;;;;;27.67;30.49;99903.44;4918556;28;98007;-63
2021/10/03 10:22:25;;;;;;;7.35;6.32;;;;;;;27.53;30.97;99909.75;4916924;28;99369;-60
2021/10/03 10:24:57;;;;;;;6.90;5.93;;;;;;;27.55;30.41;99898.28;4918122;28;98282;-63
2021/10/03 10:27:29;;;;;;;6.32;5.75;;;;;;;27.28;30.69;99906.22;4915744;28;98606;-60
2021/10/03 10:30:05;;;;;;;;;;;;;;;27.54;30.59;99900.25;4918466;28;98156;-63
2021/10/03 10:32:34;;;;;;;6.53;5.93;;;;;;;27.06;30.82;99908.09;4918116;28;108566;-61
2021/10/03 10:35:09;;;;;;;9.15;6.43;;;;;;;27.23;31.03;99890.75;4918484;28;97736;-61
2021/10/03 10:38:00;;;;;;;6.45;5.85;;;;;;;27.57;30.82;99896.72;4918368;28;98540;-63
2021/10/03 10:40:32;;;;;;;6.63;5.50;;;;;;;27.57;30.58;99898.69;4916590;28;98597;-63
2021/10/03 10:43:04;;;;;;;5.47;4.97;;;;;;;27.66;30.71;99907.38;4917604;28;97960;-63
2021/10/03 10:45:30;;;;;;;;;;;;;;;27.90;30.31;99897.47;4918938;28;98886;-61
2021/10/03 10:48:11;;;;;;;7.07;5.93;;;;;;;27.65;30.64;99897.50;4916389;28;99309;-61
2021/10/03 10:50:44;;;;;;;6.97;5.75;;;;;;;27.60;30.61;99898.69;4919047;28;98059;-61
2021/10/03 10:53:32;;;;;;;6.38;5.60;;;;;;;27.69;30.58;99897.50;4917718;28;97830;-63
2021/10/03 10:56:16;;;;;;;8.85;5.90;;;;;;;27.64;30.40;99901.47;4917418;28;98708;-60
2021/10/03 10:58:51;;;;;;;6.47;5.40;;;;;;;27.76;30.30;99897.53;4918008;28;99068;-60
2021/10/03 11:01:37;;;;;;;6.00;5.28;;;;;;;27.68;30.28;99893.16;4917539;28;98424;-63
2021/10/03 11:04:08;;;;;;;5.70;5.20;;;;;;;27.85;30.27;99903.44;4918062;28;97900;-60
2021/10/03 11:06:33;;;;;;;6.32;5.72;;;;;;;27.91;30.07;99895.53;4917024;28;99307;-63
2021/10/03 11:09:07;;;;;;;7.47;5.90;;;;;;;28.09;30.07;99894.28;4917954;28;98542;-64
2021/10/03 11:11:52;;;;;;;6.10;5.50;;;;;;;28.55;30.23;99893.38;4917446;28;98194;-63
2021/10/03 11:14:20;;;;;;;5.65;5.15;;;;;;;28.73;29.73;99898.00;4917864;28;98032;-61
2021/10/03 11:16:47;;;;;;;6.82;6.00;;;;;;;28.80;29.42;99892.44;4915678;28;98476;-60
2021/10/03 11:19:37;;;;;;;6.55;5.65;;;;;;;28.90;29.27;99893.59;4917416;28;97876;-60
2021/10/03 11:22:13;;;;;;;6.78;5.90;;;;;;;28.99;29.85;99897.50;4917869;28;97937;-60